createdAt,value
2023-03-04T00:00:29.708Z,79.49
2023-03-04T00:02:57.156Z,82.63
2023-03-04T00:05:24.709Z,80.77
2023-03-04T00:07:52.154Z,80.07
2023-03-04T00:10:19.614Z,81.03
2023-03-04T00:12:47.040Z,81.28
2023-03-04T00:15:15.814Z,81.59
2023-03-04T00:17:43.289Z,79.79
2023-03-04T00:20:11.806Z,80.16
2023-03-04T00:22:39.265Z,82.55
2023-03-04T00:25:07.665Z,79.87
2023-03-04T00:27:35.195Z,80.51
2023-03-04T00:30:02.785Z,81.04
2023-03-04T00:32:31.549Z,81.64
2023-03-04T00:34:59.043Z,81.32
2023-03-04T00:37:26.459Z,81.43
2023-03-04T00:39:53.896Z,83.50
2023-03-04T00:42:21.324Z,80.89
2023-03-04T00:44:49.598Z,85.36
2023-03-04T00:47:17.024Z,83.39
2023-03-04T00:49:45.853Z,85.21
2023-03-04T00:52:13.308Z,84.56
2023-03-04T00:54:40.796Z,85.74
2023-03-04T00:57:08.638Z,84.41
2023-03-04T00:59:36.107Z,82.57
2023-03-04T01:02:03.883Z,87.01
2023-03-04T01:04:31.354Z,86.48
2023-03-04T01:07:00.115Z,86.18
2023-03-04T01:09:27.756Z,87.66
2023-03-04T01:11:55.189Z,86.73
2023-03-04T01:14:22.597Z,87.32
2023-03-04T01:16:50.557Z,88.52
2023-03-04T01:19:18.246Z,88.65
2023-03-04T01:21:45.727Z,88.17
2023-03-04T01:24:14.484Z,87.69
2023-03-04T01:26:42.047Z,88.46
2023-03-04T01:29:09.475Z,89.21
2023-03-04T01:31:37.065Z,88.97
2023-03-04T01:34:04.606Z,89.78
2023-03-04T01:36:32.042Z,89.58
2023-03-04T01:38:59.587Z,89.52
2023-03-04T01:41:29.243Z,88.53
2023-03-04T01:43:57.929Z,87.97
2023-03-04T01:46:25.751Z,88.41
2023-03-04T01:48:53.701Z,87.31
2023-03-04T01:51:22.628Z,88.10
2023-03-04T01:53:53.261Z,87.48
2023-03-04T01:56:24.868Z,87.71
2023-03-04T01:59:10.294Z,86.64
2023-03-04T02:01:39.409Z,87.13
2023-03-04T02:04:08.614Z,87.63
2023-03-04T02:06:36.337Z,86.98
2023-03-04T02:09:05.340Z,87.39
2023-03-04T02:11:33.609Z,86.95
2023-03-04T02:14:01.230Z,85.73
2023-03-04T02:16:30.084Z,87.01
2023-03-04T02:18:57.586Z,86.38
2023-03-04T02:21:29.110Z,86.28
2023-03-04T02:24:04.256Z,86.92
2023-03-04T02:26:35.022Z,87.32
2023-03-04T02:29:04.667Z,87.74
2023-03-04T02:31:34.594Z,88.71
2023-03-04T02:34:04.659Z,88.18
2023-03-04T02:36:33.438Z,87.45
2023-03-04T02:39:04.592Z,87.29
2023-03-04T02:41:34.389Z,86.96
2023-03-04T02:44:01.792Z,88.21
2023-03-04T02:46:29.210Z,87.12
2023-03-04T02:48:56.663Z,88.39
2023-03-04T02:51:24.161Z,88.75
2023-03-04T02:53:51.595Z,88.61
2023-03-04T02:56:19.076Z,89.27
2023-03-04T02:58:47.796Z,90.58
2023-03-04T03:01:15.253Z,90.08
2023-03-04T03:03:42.784Z,89.51
2023-03-04T03:06:10.573Z,88.61
2023-03-04T03:08:38.070Z,87.70
2023-03-04T03:11:06.855Z,86.52
2023-03-04T03:13:35.776Z,87.36
2023-03-04T03:16:04.948Z,88.40
2023-03-04T03:18:32.584Z,89.50
2023-03-04T03:21:00.018Z,89.04
2023-03-04T03:23:27.427Z,88.49
2023-03-04T03:25:54.850Z,90.04
2023-03-04T03:28:22.284Z,90.53
2023-03-04T03:30:49.690Z,86.86
2023-03-04T03:33:18.469Z,87.48
2023-03-04T03:35:45.959Z,86.78
2023-03-04T03:38:13.383Z,85.21
2023-03-04T03:40:40.862Z,86.06
2023-03-04T03:43:08.438Z,87.27
2023-03-04T03:45:35.984Z,85.20
2023-03-04T03:48:03.470Z,83.60
2023-03-04T03:50:33.292Z,85.52
2023-03-04T03:53:00.753Z,84.63
2023-03-04T03:55:28.341Z,86.21
2023-03-04T03:57:55.838Z,88.13
2023-03-04T04:00:23.808Z,86.83
2023-03-04T04:02:51.302Z,84.30
2023-03-04T04:05:19.001Z,85.81
2023-03-04T04:07:47.773Z,86.55
2023-03-04T04:10:15.231Z,84.96
2023-03-04T04:12:42.661Z,85.16
2023-03-04T04:15:11.958Z,82.47
2023-03-04T04:17:40.418Z,81.21
2023-03-04T04:20:09.706Z,82.78
2023-03-04T04:22:37.139Z,83.96
2023-03-04T04:25:08.794Z,82.18
2023-03-04T04:27:36.268Z,82.23
2023-03-04T04:30:04.501Z,83.97
2023-03-04T04:32:31.981Z,86.09
2023-03-04T04:34:59.450Z,85.13
2023-03-04T04:37:26.844Z,85.26
2023-03-04T04:39:55.384Z,86.31
2023-03-04T04:42:24.614Z,84.80
2023-03-04T04:44:52.595Z,83.60
2023-03-04T04:47:20.110Z,86.71
2023-03-04T04:49:47.540Z,86.34
2023-03-04T04:52:14.947Z,84.28
2023-03-04T04:54:42.347Z,84.74
2023-03-04T04:57:09.778Z,83.56
2023-03-04T04:59:38.533Z,83.35
2023-03-04T05:02:06.062Z,83.29
2023-03-04T05:04:33.480Z,84.05
2023-03-04T05:07:00.988Z,83.93
2023-03-04T05:09:28.413Z,84.56
2023-03-04T05:11:55.825Z,85.96
2023-03-04T05:14:23.304Z,84.36
2023-03-04T05:16:53.137Z,84.22
2023-03-04T05:19:21.222Z,84.52
2023-03-04T05:21:48.684Z,85.82
2023-03-04T05:24:16.147Z,85.68
2023-03-04T05:26:43.552Z,85.15
2023-03-04T05:29:11.146Z,83.24
2023-03-04T05:31:38.541Z,84.32
2023-03-04T05:34:07.386Z,84.80
2023-03-04T05:36:34.898Z,84.53
2023-03-04T05:39:02.440Z,85.23
2023-03-04T05:41:29.856Z,85.12
2023-03-04T05:43:57.257Z,84.48
2023-03-04T05:46:25.692Z,85.82
2023-03-04T05:48:54.086Z,87.37
2023-03-04T05:51:23.465Z,86.71
2023-03-04T05:53:51.034Z,85.70
2023-03-04T05:56:20.505Z,86.57
2023-03-04T05:58:48.371Z,87.27
2023-03-04T06:01:16.424Z,87.43
2023-03-04T06:03:44.227Z,87.49
2023-03-04T06:06:11.869Z,87.77
2023-03-04T06:08:40.641Z,87.81
2023-03-04T06:11:08.214Z,85.64
2023-03-04T06:13:35.931Z,87.08
2023-03-04T06:16:03.409Z,87.57
2023-03-04T06:18:30.899Z,86.64
2023-03-04T06:20:59.443Z,85.96
2023-03-04T06:23:27.970Z,86.70
2023-03-04T06:25:59.145Z,87.82
2023-03-04T06:28:26.804Z,89.34
2023-03-04T06:30:54.707Z,90.30
2023-03-04T06:33:22.904Z,90.02
2023-03-04T06:35:54.413Z,91.05
2023-03-04T06:38:21.876Z,91.68
2023-03-04T06:40:49.415Z,89.86
2023-03-04T06:43:18.146Z,89.21
2023-03-04T06:45:45.838Z,88.97
2023-03-04T06:48:13.720Z,89.24
2023-03-04T06:50:41.208Z,87.87
2023-03-04T06:53:08.615Z,88.46
2023-03-04T06:55:37.080Z,89.29
2023-03-04T06:58:04.521Z,90.73
2023-03-04T07:00:33.355Z,89.37
2023-03-04T07:03:01.952Z,89.87
2023-03-04T07:05:29.373Z,92.06
2023-03-04T07:07:56.875Z,93.82
2023-03-04T07:10:24.291Z,94.13
2023-03-04T07:12:51.710Z,93.50
2023-03-04T07:15:19.243Z,91.35
2023-03-04T07:17:47.988Z,91.98
2023-03-04T07:20:15.399Z,91.85
2023-03-04T07:22:42.821Z,95.86
2023-03-04T07:25:10.635Z,93.33
2023-03-04T07:27:38.603Z,92.86
2023-03-04T07:30:06.930Z,92.27
2023-03-04T07:32:34.517Z,94.88
2023-03-04T07:35:03.879Z,96.93
2023-03-04T07:37:31.309Z,98.02
2023-03-04T07:39:58.723Z,96.43
2023-03-04T07:42:26.231Z,99.26
2023-03-04T07:44:55.162Z,99.76
2023-03-04T07:47:22.628Z,100.00
2023-03-04T07:49:50.076Z,99.94
2023-03-04T07:52:18.804Z,99.86
2023-03-04T07:54:46.215Z,99.08
2023-03-04T07:57:13.638Z,99.72
2023-03-04T07:59:41.067Z,99.83
2023-03-04T08:02:09.847Z,98.65
2023-03-04T08:04:37.375Z,98.98
2023-03-04T08:07:04.850Z,98.98
2023-03-04T08:09:33.592Z,98.43
2023-03-04T08:12:01.089Z,98.64
2023-03-04T08:14:28.618Z,98.12
2023-03-04T08:16:56.021Z,98.88
2023-03-04T08:19:25.883Z,98.02
2023-03-04T08:21:53.478Z,96.26
2023-03-04T08:24:21.005Z,96.06
2023-03-04T08:26:51.226Z,95.10
2023-03-04T08:29:21.398Z,96.13
2023-03-04T08:31:49.324Z,95.72
2023-03-04T08:34:17.765Z,94.51
2023-03-04T08:36:45.334Z,94.07
2023-03-04T08:39:14.035Z,92.84
2023-03-04T08:41:41.534Z,91.57
2023-03-04T08:44:11.164Z,89.80
2023-03-04T08:46:40.034Z,88.08
2023-03-04T08:49:08.112Z,87.25
2023-03-04T08:51:36.604Z,86.39
2023-03-04T08:54:06.725Z,86.82
2023-03-04T08:56:34.309Z,85.53
2023-03-04T08:59:01.758Z,85.58
2023-03-04T09:01:30.658Z,85.80
2023-03-04T09:03:58.138Z,85.78
2023-03-04T09:06:25.579Z,84.30
2023-03-04T09:08:53.080Z,85.51
2023-03-04T09:11:20.615Z,85.13
2023-03-04T09:13:48.089Z,85.06
2023-03-04T09:16:16.047Z,84.68
2023-03-04T09:18:45.112Z,86.32
2023-03-04T09:21:12.802Z,86.21
2023-03-04T09:23:40.657Z,87.37
2023-03-04T09:26:18.584Z,85.31
2023-03-04T09:28:46.071Z,85.30
2023-03-04T09:31:14.428Z,85.34
2023-03-04T09:33:43.127Z,84.87
2023-03-04T09:36:13.761Z,84.65
2023-03-04T09:38:42.004Z,84.66
2023-03-04T09:41:16.591Z,85.26
2023-03-04T09:43:45.884Z,85.21
2023-03-04T09:46:16.957Z,83.82
2023-03-04T09:48:47.812Z,84.50
2023-03-04T09:51:23.343Z,83.29
2023-03-04T09:54:06.973Z,83.63
2023-03-04T09:56:36.013Z,82.66
2023-03-04T09:59:15.363Z,82.30
2023-03-04T10:01:48.864Z,82.66
2023-03-04T10:04:23.147Z,82.34
2023-03-04T10:06:54.615Z,81.25
2023-03-04T10:09:26.166Z,81.93
2023-03-04T10:12:01.644Z,82.45
2023-03-04T10:14:36.262Z,80.67
2023-03-04T10:17:09.770Z,80.61
2023-03-04T10:19:51.977Z,81.92
2023-03-04T10:22:27.923Z,81.80
2023-03-04T10:24:57.948Z,81.88
2023-03-04T10:27:27.038Z,81.62
2023-03-04T10:29:54.491Z,80.76
2023-03-04T10:32:22.398Z,80.24
2023-03-04T10:34:49.868Z,78.93
2023-03-04T10:37:17.329Z,78.85
2023-03-04T10:39:49.271Z,76.41
2023-03-04T10:42:37.271Z,77.28
2023-03-04T10:45:20.010Z,76.38
2023-03-04T10:47:53.479Z,75.24
2023-03-04T10:50:25.216Z,74.39
2023-03-04T10:52:55.577Z,75.12
2023-03-04T10:55:26.821Z,75.24
2023-03-04T10:57:58.042Z,74.88
2023-03-04T11:00:29.563Z,74.35
2023-03-04T11:03:24.181Z,74.26
2023-03-04T11:05:53.458Z,75.00
2023-03-04T11:08:24.220Z,74.96
2023-03-04T11:10:53.024Z,75.23
2023-03-04T11:13:25.958Z,75.26
2023-03-04T11:15:57.983Z,74.96
2023-03-04T11:18:33.552Z,74.18
2023-03-04T11:21:02.067Z,74.18
2023-03-04T11:23:36.804Z,75.00
2023-03-04T11:26:10.569Z,73.57
2023-03-04T11:28:48.152Z,72.79
2023-03-04T11:31:21.293Z,72.89
2023-03-04T11:33:53.059Z,72.07
2023-03-04T11:36:33.615Z,73.85
2023-03-04T11:39:02.417Z,73.71
2023-03-04T11:41:35.607Z,73.17
2023-03-04T11:44:06.616Z,72.56
2023-03-04T11:46:47.524Z,73.51
2023-03-04T11:49:35.784Z,71.88
2023-03-04T11:52:10.679Z,71.96
2023-03-04T11:54:49.277Z,71.24
2023-03-04T11:57:28.510Z,71.43
2023-03-04T12:00:17.108Z,70.97
2023-03-04T12:02:55.397Z,70.75
2023-03-04T12:05:31.742Z,70.86
2023-03-04T12:08:26.660Z,70.49
2023-03-04T12:11:04.190Z,70.58
2023-03-04T12:14:04.518Z,69.99
2023-03-04T12:16:48.255Z,70.38
2023-03-04T12:19:25.648Z,69.34
2023-03-04T12:22:15.726Z,69.67
2023-03-04T12:25:03.471Z,69.36
2023-03-04T12:27:41.188Z,68.85
2023-03-04T12:30:22.689Z,70.32
2023-03-04T12:32:58.705Z,70.35
2023-03-04T12:35:37.404Z,69.10
2023-03-04T12:38:18.425Z,69.42
2023-03-04T12:40:51.360Z,69.47
2023-03-04T12:43:36.065Z,68.87
2023-03-04T12:46:17.748Z,69.20
2023-03-04T12:48:53.568Z,68.94
2023-03-04T12:51:33.809Z,69.05
2023-03-04T12:54:18.539Z,69.11
2023-03-04T12:56:52.530Z,69.11
2023-03-04T12:59:23.223Z,69.02
2023-03-04T13:02:04.915Z,69.11
2023-03-04T13:04:49.498Z,68.10
2023-03-04T13:07:23.064Z,68.39
2023-03-04T13:09:56.003Z,68.60
2023-03-04T13:12:24.486Z,68.32
2023-03-04T13:15:18.870Z,68.58
2023-03-04T13:17:50.282Z,69.00
2023-03-04T13:20:25.246Z,69.26
2023-03-04T13:22:58.257Z,70.11
2023-03-04T13:25:38.479Z,69.31
2023-03-04T13:28:26.536Z,70.39
2023-03-04T13:31:26.664Z,69.77
2023-03-04T13:33:58.923Z,69.95
2023-03-04T13:36:55.740Z,70.00
2023-03-04T13:39:26.906Z,70.07
2023-03-04T13:41:56.698Z,70.07
2023-03-04T13:44:57.713Z,69.17
2023-03-04T13:47:42.787Z,68.96
2023-03-04T13:50:31.752Z,68.60
2023-03-04T13:53:21.126Z,68.67
2023-03-04T13:56:06.214Z,67.42
2023-03-04T13:58:35.049Z,67.28
2023-03-04T14:01:02.601Z,66.77
2023-03-04T14:03:31.778Z,67.45
2023-03-04T14:06:19.745Z,68.83
2023-03-04T14:08:48.662Z,69.45
2023-03-04T14:11:20.467Z,69.73
2023-03-04T14:13:48.119Z,69.48
2023-03-04T14:16:21.516Z,68.13
2023-03-04T14:18:58.386Z,68.59
2023-03-04T14:21:27.192Z,68.90
2023-03-04T14:24:03.523Z,68.07
2023-03-04T14:26:31.689Z,68.60
2023-03-04T14:28:59.754Z,68.58
2023-03-04T14:31:30.079Z,68.63
2023-03-04T14:34:02.270Z,68.90
2023-03-04T14:36:34.583Z,68.92
2023-03-04T14:39:04.811Z,69.34
2023-03-04T14:41:35.263Z,69.26
2023-03-04T14:44:12.686Z,69.77
2023-03-04T14:46:46.146Z,69.91
2023-03-04T14:49:18.972Z,69.79
2023-03-04T14:51:50.061Z,69.44
2023-03-04T14:54:29.759Z,69.92
2023-03-04T14:56:57.892Z,69.73
2023-03-04T14:59:30.068Z,69.97
2023-03-04T15:02:18.200Z,70.35
2023-03-04T15:04:46.184Z,69.69
2023-03-04T15:07:19.959Z,69.12
2023-03-04T15:09:53.361Z,69.25
2023-03-04T15:12:26.717Z,69.62
2023-03-04T15:14:56.664Z,68.58
2023-03-04T15:17:31.591Z,67.93
2023-03-04T15:20:00.961Z,68.16
2023-03-04T15:22:29.876Z,67.03
2023-03-04T15:24:57.314Z,67.14
2023-03-04T15:27:26.248Z,66.10
2023-03-04T15:29:58.889Z,66.95
2023-03-04T15:32:26.823Z,67.61
2023-03-04T15:34:54.231Z,66.89
2023-03-04T15:37:24.984Z,68.10
2023-03-04T15:39:54.323Z,66.34
2023-03-04T15:42:21.850Z,67.93
2023-03-04T15:44:49.265Z,67.58
2023-03-04T15:47:16.718Z,68.50
2023-03-04T15:49:47.356Z,67.77
2023-03-04T15:52:19.717Z,66.62
2023-03-04T15:54:48.815Z,66.61
2023-03-04T15:57:22.613Z,67.18
2023-03-04T15:59:50.098Z,65.93
2023-03-04T16:02:21.699Z,64.74
2023-03-04T16:04:49.255Z,65.53
2023-03-04T16:07:19.235Z,65.96
2023-03-04T16:09:47.501Z,65.23
2023-03-04T16:12:14.994Z,66.13
2023-03-04T16:14:44.373Z,66.31
2023-03-04T16:17:11.807Z,66.13
2023-03-04T16:19:39.308Z,66.16
2023-03-04T16:22:07.281Z,66.74
2023-03-04T16:24:35.784Z,66.27
2023-03-04T16:27:05.950Z,65.72
2023-03-04T16:29:33.666Z,67.20
2023-03-04T16:32:02.610Z,66.38
2023-03-04T16:34:30.060Z,66.66
2023-03-04T16:36:57.477Z,65.73
2023-03-04T16:39:26.526Z,66.20
2023-03-04T16:41:54.935Z,65.47
2023-03-04T16:44:22.391Z,66.21
2023-03-04T16:46:49.902Z,65.94
2023-03-04T16:49:18.704Z,65.61
2023-03-04T16:51:49.326Z,65.84
2023-03-04T16:54:19.733Z,65.22
2023-03-04T16:56:47.164Z,65.10
2023-03-04T16:59:16.589Z,65.72
2023-03-04T17:01:44.402Z,65.04
2023-03-04T17:04:12.041Z,64.86
2023-03-04T17:06:40.830Z,65.86
2023-03-04T17:09:08.839Z,64.56
2023-03-04T17:11:37.040Z,64.89
2023-03-04T17:14:04.987Z,64.72
2023-03-04T17:16:32.591Z,64.95
2023-03-04T17:19:00.031Z,65.46
2023-03-04T17:21:28.200Z,65.40
2023-03-04T17:23:56.957Z,64.51
2023-03-04T17:26:25.065Z,64.15
2023-03-04T17:28:52.710Z,64.95
2023-03-04T17:31:22.013Z,64.03
2023-03-04T17:33:49.817Z,63.42
2023-03-04T17:36:19.032Z,63.82
2023-03-04T17:38:47.220Z,64.31
2023-03-04T17:41:18.604Z,65.54
2023-03-04T17:43:47.251Z,64.47
2023-03-04T17:46:17.080Z,65.07
2023-03-04T17:48:44.683Z,65.52
2023-03-04T17:51:12.911Z,65.46
2023-03-04T17:53:40.384Z,65.22
2023-03-04T17:56:09.866Z,66.02
2023-03-04T17:58:38.763Z,66.96
2023-03-04T18:01:08.369Z,67.02
2023-03-04T18:03:35.868Z,66.22
2023-03-04T18:06:03.271Z,66.86
2023-03-04T18:08:30.671Z,66.48
2023-03-04T18:10:58.042Z,66.90
2023-03-04T18:13:25.476Z,68.34
2023-03-04T18:15:55.304Z,67.73
2023-03-04T18:18:22.864Z,66.67
2023-03-04T18:20:50.313Z,67.60
2023-03-04T18:23:17.760Z,66.91
2023-03-04T18:25:45.154Z,67.08
2023-03-04T18:28:12.575Z,67.54
2023-03-04T18:30:40.032Z,67.52
2023-03-04T18:33:08.872Z,66.94
2023-03-04T18:35:36.550Z,67.98
2023-03-04T18:38:04.440Z,67.65
2023-03-04T18:40:31.912Z,68.57
2023-03-04T18:43:00.203Z,67.60
2023-03-04T18:45:28.325Z,67.27
2023-03-04T18:47:55.952Z,69.00
2023-03-04T18:50:24.801Z,69.27
2023-03-04T18:52:53.566Z,69.03
2023-03-04T18:55:21.242Z,69.25
2023-03-04T18:57:51.931Z,68.25
2023-03-04T19:00:21.687Z,68.00
2023-03-04T19:02:52.849Z,67.60
2023-03-04T19:05:24.212Z,69.31
2023-03-04T19:07:53.957Z,68.39
2023-03-04T19:10:21.839Z,68.18
2023-03-04T19:12:49.256Z,67.97
2023-03-04T19:15:18.188Z,68.45
2023-03-04T19:17:46.194Z,69.56
2023-03-04T19:20:15.517Z,67.34
2023-03-04T19:22:43.138Z,68.12
2023-03-04T19:25:12.806Z,69.27
2023-03-04T19:27:40.460Z,68.77
2023-03-04T19:30:09.154Z,70.22
2023-03-04T19:32:36.737Z,68.57
2023-03-04T19:35:04.419Z,68.85
2023-03-04T19:37:32.001Z,69.52
2023-03-04T19:39:59.484Z,69.96
2023-03-04T19:42:28.213Z,69.27
2023-03-04T19:44:55.958Z,69.04
2023-03-04T19:47:23.384Z,69.22
2023-03-04T19:49:50.826Z,69.27
2023-03-04T19:52:18.274Z,68.61
2023-03-04T19:54:45.744Z,68.15
2023-03-04T19:57:13.178Z,70.05
2023-03-04T19:59:41.977Z,70.32
2023-03-04T20:02:09.457Z,70.74
2023-03-04T20:04:36.927Z,69.23
2023-03-04T20:07:04.696Z,69.51
2023-03-04T20:09:33.388Z,70.43
2023-03-04T20:12:00.824Z,69.51
2023-03-04T20:14:28.808Z,69.13
2023-03-04T20:17:00.814Z,69.19
2023-03-04T20:19:28.397Z,70.59
2023-03-04T20:21:56.378Z,69.76
2023-03-04T20:24:23.934Z,69.98
2023-03-04T20:26:51.973Z,68.97
2023-03-04T20:29:19.700Z,68.95
2023-03-04T20:31:47.219Z,68.72
2023-03-04T20:34:16.628Z,69.57
2023-03-04T20:36:44.097Z,69.18
2023-03-04T20:39:27.716Z,70.06
2023-03-04T20:41:56.201Z,70.12
2023-03-04T20:44:23.693Z,69.31
2023-03-04T20:46:51.122Z,67.74
2023-03-04T20:49:23.329Z,68.12
2023-03-04T20:51:51.235Z,69.75
2023-03-04T20:54:18.721Z,70.51
2023-03-04T20:56:46.328Z,70.46
2023-03-04T20:59:13.887Z,70.90
2023-03-04T21:01:43.614Z,70.53
2023-03-04T21:04:11.736Z,71.16
2023-03-04T21:06:41.269Z,71.33
2023-03-04T21:09:10.678Z,71.42
2023-03-04T21:11:40.470Z,69.98
2023-03-04T21:14:08.927Z,69.51
2023-03-04T21:16:36.411Z,69.21
2023-03-04T21:19:03.845Z,68.41
2023-03-04T21:21:31.761Z,66.00
2023-03-04T21:24:00.657Z,65.84
2023-03-04T21:26:28.113Z,64.31
2023-03-04T21:28:55.688Z,64.18
2023-03-04T21:31:25.568Z,64.69
2023-03-04T21:33:53.948Z,64.37
2023-03-04T21:36:21.771Z,64.24
2023-03-04T21:38:49.780Z,68.22
2023-03-04T21:41:20.695Z,70.11
2023-03-04T21:43:48.494Z,72.58
2023-03-04T21:46:17.493Z,71.24
2023-03-04T21:48:47.532Z,72.05
2023-03-04T21:51:16.855Z,76.26
2023-03-04T21:53:44.583Z,74.96
2023-03-04T21:56:13.325Z,76.23
2023-03-04T21:58:42.422Z,68.99
2023-03-04T22:01:10.787Z,65.65
2023-03-04T22:03:38.371Z,65.11
2023-03-04T22:06:07.039Z,64.95
2023-03-04T22:08:34.605Z,66.17
2023-03-04T22:11:05.444Z,66.00
2023-03-04T22:13:33.037Z,65.92
2023-03-04T22:16:02.097Z,66.30
2023-03-04T22:18:29.727Z,68.11
2023-03-04T22:21:01.144Z,66.31
2023-03-04T22:23:29.193Z,67.37
2023-03-04T22:25:59.264Z,66.74
2023-03-04T22:28:28.426Z,66.32
2023-03-04T22:30:56.792Z,64.73
2023-03-04T22:33:25.803Z,64.88
2023-03-04T22:35:53.702Z,65.58
2023-03-04T22:38:22.308Z,65.90
2023-03-04T22:40:50.516Z,66.79
2023-03-04T22:43:17.929Z,65.79
2023-03-04T22:45:45.411Z,66.35
2023-03-04T22:48:14.407Z,66.80
2023-03-04T22:50:43.234Z,66.77
2023-03-04T22:53:10.633Z,67.15
2023-03-04T22:55:38.062Z,66.60
2023-03-04T22:58:05.704Z,66.42
2023-03-04T23:00:33.621Z,65.86
2023-03-04T23:03:01.042Z,66.23
2023-03-04T23:05:29.413Z,66.65
2023-03-04T23:07:58.960Z,66.10
2023-03-04T23:10:26.799Z,65.90
2023-03-04T23:12:54.502Z,67.14
2023-03-04T23:15:22.071Z,66.72
2023-03-04T23:17:50.044Z,65.66
2023-03-04T23:20:19.670Z,68.85
2023-03-04T23:22:48.172Z,67.94
2023-03-04T23:25:17.914Z,70.38
2023-03-04T23:27:45.490Z,69.57
2023-03-04T23:30:15.905Z,69.10
2023-03-04T23:32:44.126Z,69.20
2023-03-04T23:35:12.154Z,69.64
2023-03-04T23:37:39.790Z,71.02
2023-03-04T23:40:08.664Z,71.55
2023-03-04T23:42:37.823Z,72.31
2023-03-04T23:45:06.398Z,75.93
2023-03-04T23:47:34.887Z,78.05
2023-03-04T23:50:03.864Z,77.87
2023-03-04T23:52:31.395Z,80.03
2023-03-04T23:54:58.884Z,80.81
2023-03-04T23:57:26.411Z,80.20
2023-03-04T23:59:55.196Z,82.19
